createdAt,value
2018-04-11T00:03:51.584Z,29.30
2018-04-11T00:08:42.505Z,28.33
2018-04-11T00:13:33.412Z,35.13
2018-04-11T00:18:24.313Z,27.90
2018-04-11T00:23:15.281Z,29.57
2018-04-11T00:28:06.185Z,26.13
2018-04-11T00:32:57.082Z,31.00
2018-04-11T00:37:48.725Z,32.27
2018-04-11T00:42:40.377Z,27.27
2018-04-11T00:47:32.014Z,30.70
2018-04-11T00:52:23.661Z,27.27
2018-04-11T00:57:15.292Z,27.23
2018-04-11T01:02:06.172Z,30.70
2018-04-11T01:06:57.060Z,30.53
2018-04-11T01:11:48.740Z,39.77
2018-04-11T01:16:39.628Z,33.37
2018-04-11T01:21:31.265Z,32.17
2018-04-11T01:26:22.911Z,33.97
2018-04-11T01:31:14.555Z,29.83
2018-04-11T01:36:06.179Z,30.33
2018-04-11T01:40:57.072Z,29.20
2018-04-11T01:45:47.965Z,32.93
2018-04-11T01:50:39.649Z,34.30
2018-04-11T01:55:30.576Z,28.63
2018-04-11T02:00:21.459Z,31.73
2018-04-11T02:05:12.365Z,35.73
2018-04-11T02:10:03.248Z,30.47
2018-04-11T02:14:54.150Z,35.77
2018-04-11T02:19:45.779Z,30.60
2018-04-11T02:24:37.486Z,29.60
2018-04-11T02:29:28.376Z,36.90
2018-04-11T02:34:20.048Z,33.57
2018-04-11T02:39:10.931Z,31.73
2018-04-11T02:44:02.692Z,33.53
2018-04-11T02:48:54.329Z,35.50
2018-04-11T02:53:45.947Z,40.43
2018-04-11T02:58:36.953Z,34.63
2018-04-11T03:03:27.852Z,34.23
2018-04-11T03:08:18.732Z,32.50
2018-04-11T03:13:09.624Z,33.03
2018-04-11T03:18:00.562Z,37.00
2018-04-11T03:22:51.453Z,36.63
2018-04-11T03:27:43.071Z,37.13
2018-04-11T03:32:33.992Z,43.23
2018-04-11T03:37:24.875Z,45.83
2018-04-11T03:42:16.503Z,36.63
2018-04-11T03:47:07.395Z,36.80
2018-04-11T03:51:58.274Z,37.20
2018-04-11T03:56:49.172Z,46.80
2018-04-11T04:01:40.092Z,34.20
2018-04-11T04:06:31.692Z,42.57
2018-04-11T04:11:23.329Z,41.13
2018-04-11T04:16:27.496Z,35.63
2018-04-11T04:21:18.398Z,38.97
2018-04-11T04:26:09.330Z,41.63
2018-04-11T04:31:00.220Z,36.37
2018-04-11T04:35:51.207Z,38.77
2018-04-11T04:40:42.111Z,36.20
2018-04-11T04:45:33.764Z,36.13
2018-04-11T04:50:25.451Z,35.67
2018-04-11T04:55:16.339Z,40.70
2018-04-11T05:00:07.995Z,34.70
2018-04-11T05:04:58.964Z,35.07
2018-04-11T05:09:49.864Z,39.97
2018-04-11T05:14:40.808Z,38.10
2018-04-11T05:19:31.742Z,32.97
2018-04-11T05:24:22.665Z,39.87
2018-04-11T05:29:13.568Z,35.00
2018-04-11T05:34:04.455Z,36.67
2018-04-11T05:38:55.357Z,34.97
2018-04-11T05:43:46.274Z,34.50
2018-04-11T05:48:37.171Z,30.53
2018-04-11T05:53:28.856Z,39.87
2018-04-11T05:58:19.714Z,36.93
2018-04-11T06:03:10.622Z,31.27
2018-04-11T06:08:01.649Z,34.73
2018-04-11T06:12:52.581Z,32.60
2018-04-11T06:17:43.475Z,37.77
2018-04-11T06:22:34.434Z,35.93
2018-04-11T06:27:25.357Z,33.57
2018-04-11T06:32:16.258Z,33.80
2018-04-11T06:37:07.222Z,29.80
2018-04-11T06:41:58.118Z,24.13
2018-04-11T06:46:49.037Z,29.23
2018-04-11T06:51:39.994Z,26.17
2018-04-11T06:56:30.887Z,26.27
2018-04-11T07:01:21.848Z,22.90
2018-04-11T07:06:12.758Z,25.37
2018-04-11T07:11:03.655Z,21.93
2018-04-11T07:15:55.307Z,19.53
2018-04-11T07:20:47.010Z,21.60
2018-04-11T07:25:37.929Z,19.80
2018-04-11T07:30:28.815Z,19.50
2018-04-11T07:35:20.466Z,20.43
2018-04-11T07:40:11.423Z,18.73
2018-04-11T07:45:02.265Z,15.83
2018-04-11T07:49:53.167Z,15.30
2018-04-11T07:54:44.052Z,15.57
2018-04-11T07:59:34.949Z,16.13
2018-04-11T08:04:25.844Z,16.20
2018-04-11T08:09:16.741Z,13.03
2018-04-11T08:14:08.393Z,15.30
2018-04-11T08:18:59.281Z,18.20
2018-04-11T08:23:50.135Z,17.30
2018-04-11T08:28:41.777Z,17.80
2018-04-11T08:33:33.408Z,17.27
2018-04-11T08:38:24.303Z,19.03
2018-04-11T08:43:15.194Z,23.73
2018-04-11T08:48:06.079Z,20.27
2018-04-11T08:52:56.973Z,27.67
2018-04-11T08:57:47.864Z,28.77
2018-04-11T09:02:38.744Z,25.70
2018-04-11T09:07:29.658Z,27.83
2018-04-11T09:12:20.605Z,21.77
2018-04-11T09:17:11.507Z,27.23
2018-04-11T09:22:02.421Z,23.93
2018-04-11T09:26:53.325Z,21.97
2018-04-11T09:31:44.251Z,19.27
2018-04-11T09:36:35.161Z,18.83
2018-04-11T09:41:26.060Z,20.93
2018-04-11T09:46:16.946Z,21.80
2018-04-11T09:51:08.579Z,20.40
2018-04-11T09:55:59.484Z,17.87
2018-04-11T10:00:52.272Z,17.23
2018-04-11T10:05:43.177Z,18.67
2018-04-11T10:10:34.085Z,15.30
2018-04-11T10:15:24.964Z,15.67
2018-04-11T10:20:16.609Z,13.97
2018-04-11T10:25:08.270Z,15.20
2018-04-11T10:29:59.168Z,13.17
2018-04-11T10:34:50.073Z,15.40
2018-04-11T10:39:41.001Z,13.40
2018-04-11T10:44:31.898Z,15.27
2018-04-11T10:49:23.569Z,13.40
2018-04-11T10:54:14.460Z,13.97
2018-04-11T10:59:05.366Z,13.30
2018-04-11T11:03:57.026Z,16.97
2018-04-11T11:08:48.668Z,15.33
2018-04-11T11:13:40.313Z,16.37
2018-04-11T11:18:31.995Z,13.00
2018-04-11T11:23:22.893Z,17.13
2018-04-11T11:28:13.810Z,13.03
2018-04-11T11:33:04.696Z,21.27
2018-04-11T11:37:55.609Z,22.00
2018-04-11T11:42:46.515Z,22.27
2018-04-11T11:47:37.534Z,24.13
2018-04-11T11:52:29.166Z,22.87
2018-04-11T11:57:20.840Z,23.17
2018-04-11T12:02:12.469Z,25.73
2018-04-11T12:07:04.905Z,28.83
2018-04-11T12:11:55.829Z,28.37
2018-04-11T12:16:46.711Z,33.83
2018-04-11T12:21:37.603Z,31.60
2018-04-11T12:26:29.244Z,29.90
2018-04-11T12:31:20.936Z,29.70
2018-04-11T12:36:11.823Z,30.83
2018-04-11T12:41:03.520Z,24.67
2018-04-11T12:45:54.433Z,24.57
2018-04-11T12:50:45.336Z,23.50
2018-04-11T12:55:36.320Z,22.93
2018-04-11T13:00:27.237Z,23.07
2018-04-11T13:05:18.135Z,23.37
2018-04-11T13:10:09.031Z,20.70
2018-04-11T13:15:01.405Z,20.50
2018-04-11T13:19:53.067Z,24.50
2018-04-11T13:24:43.955Z,29.70
2018-04-11T13:29:34.847Z,30.53
2018-04-11T13:34:25.739Z,30.90
2018-04-11T13:39:17.384Z,31.00
2018-04-11T13:44:09.076Z,33.77
2018-04-11T13:49:00.227Z,31.60
2018-04-11T13:53:51.899Z,33.83
2018-04-11T13:58:43.554Z,27.33
2018-04-11T14:03:35.191Z,24.47
2018-04-11T14:08:26.841Z,27.03
2018-04-11T14:13:18.495Z,29.83
2018-04-11T14:18:09.384Z,29.40
2018-04-11T14:23:00.274Z,34.77
2018-04-11T14:27:51.164Z,36.17
2018-04-11T14:32:42.080Z,34.33
2018-04-11T14:37:33.719Z,34.63
2018-04-11T14:42:25.369Z,37.97
2018-04-11T14:47:16.339Z,30.03
2018-04-11T14:52:07.254Z,34.87
2018-04-11T14:56:58.156Z,32.10
2018-04-11T15:01:49.047Z,32.03
2018-04-11T15:06:39.947Z,32.03
2018-04-11T15:11:30.876Z,30.60
2018-04-11T15:16:21.775Z,36.50
2018-04-11T15:21:12.684Z,36.90
2018-04-11T15:26:03.593Z,35.97
2018-04-11T15:30:55.234Z,36.07
2018-04-11T15:35:46.131Z,35.60
2018-04-11T15:40:37.029Z,35.80
2018-04-11T15:45:27.923Z,39.40
2018-04-11T15:50:19.604Z,39.23
2018-04-11T15:55:10.503Z,38.60
2018-04-11T16:00:01.388Z,37.07
2018-04-11T16:04:52.285Z,37.33
2018-04-11T16:09:43.188Z,41.70
2018-04-11T16:14:34.071Z,38.00
2018-04-11T16:19:24.947Z,42.50
2018-04-11T16:24:15.883Z,47.83
2018-04-11T16:29:06.783Z,42.40
2018-04-11T16:33:57.685Z,50.07
2018-04-11T16:38:49.336Z,45.23
2018-04-11T16:43:40.310Z,47.07
2018-04-11T16:48:31.207Z,49.07
2018-04-11T16:53:22.100Z,41.80
2018-04-11T16:58:13.130Z,53.43
2018-04-11T17:03:04.021Z,48.73
2018-04-11T17:07:54.934Z,51.40
2018-04-11T17:12:45.837Z,50.00
2018-04-11T17:17:36.715Z,47.17
2018-04-11T17:22:40.231Z,48.07
2018-04-11T17:27:43.583Z,47.30
2018-04-11T17:32:34.469Z,55.30
2018-04-11T17:37:26.144Z,50.00
2018-04-11T17:42:17.087Z,45.87
2018-04-11T17:47:08.157Z,51.90
2018-04-11T17:51:59.056Z,45.53
2018-04-11T17:56:49.952Z,49.10
2018-04-11T18:01:40.857Z,48.30
2018-04-11T18:06:31.766Z,42.30
2018-04-11T18:11:22.668Z,44.60
2018-04-11T18:16:13.578Z,48.90
2018-04-11T18:21:04.487Z,44.77
2018-04-11T18:25:55.410Z,49.13
2018-04-11T18:30:46.321Z,38.00
2018-04-11T18:35:37.239Z,46.53
2018-04-11T18:40:28.888Z,46.73
2018-04-11T18:45:20.518Z,42.53
2018-04-11T18:50:11.484Z,43.00
2018-04-11T18:55:02.378Z,50.00
2018-04-11T18:59:53.273Z,42.30
2018-04-11T19:04:44.159Z,41.10
2018-04-11T19:09:35.807Z,45.77
2018-04-11T19:14:27.488Z,39.00
2018-04-11T19:19:18.367Z,42.87
2018-04-11T19:24:25.030Z,41.70
2018-04-11T19:29:15.916Z,45.50
2018-04-11T19:34:06.853Z,41.33
2018-04-11T19:38:57.734Z,45.00
2018-04-11T19:43:49.425Z,43.20
2018-04-11T19:48:40.351Z,45.57
2018-04-11T19:53:31.267Z,44.33
2018-04-11T19:58:22.159Z,39.93
2018-04-11T20:03:13.794Z,53.23
2018-04-11T20:08:05.442Z,40.57
2018-04-11T20:12:57.071Z,46.53
2018-04-11T20:17:47.981Z,40.00
2018-04-11T20:22:38.879Z,42.17
2018-04-11T20:27:29.775Z,44.80
2018-04-11T20:32:20.663Z,44.87
2018-04-11T20:37:11.565Z,46.30
2018-04-11T20:42:02.481Z,41.30
2018-04-11T20:46:53.525Z,45.40
2018-04-11T20:51:44.425Z,46.13
2018-04-11T20:56:36.068Z,47.53
2018-04-11T21:01:27.742Z,43.73
2018-04-11T21:06:18.646Z,43.17
2018-04-11T21:11:10.283Z,44.30
2018-04-11T21:16:01.189Z,44.93
2018-04-11T21:20:52.088Z,41.27
2018-04-11T21:25:43.739Z,49.40
2018-04-11T21:30:35.404Z,48.63
2018-04-11T21:35:26.449Z,47.53
2018-04-11T21:40:17.356Z,41.07
2018-04-11T21:45:09.000Z,41.87
2018-04-11T21:50:00.625Z,45.87
2018-04-11T21:54:51.521Z,42.97
2018-04-11T21:59:42.426Z,42.93
2018-04-11T22:04:34.065Z,40.83
2018-04-11T22:09:25.760Z,37.07
2018-04-11T22:14:16.649Z,42.03
2018-04-11T22:19:08.276Z,43.73
2018-04-11T22:23:59.182Z,42.13
2018-04-11T22:28:50.068Z,43.57
2018-04-11T22:33:41.715Z,41.30
2018-04-11T22:38:33.378Z,40.97
2018-04-11T22:43:25.075Z,39.60
2018-04-11T22:48:16.030Z,41.20
2018-04-11T22:53:06.896Z,35.13
2018-04-11T22:57:58.542Z,36.80
2018-04-11T23:02:50.180Z,38.90
2018-04-11T23:07:41.081Z,36.87
2018-04-11T23:12:31.968Z,35.50
2018-04-11T23:17:23.600Z,39.30
2018-04-11T23:22:15.292Z,36.73
2018-04-11T23:27:06.176Z,36.10
2018-04-11T23:31:57.083Z,40.73
2018-04-11T23:36:47.969Z,40.77
2018-04-11T23:41:39.614Z,38.77
2018-04-11T23:46:31.282Z,33.27
2018-04-11T23:51:22.938Z,38.17
2018-04-11T23:56:14.650Z,37.83
